createdAt,value
2023-12-02T00:03:04.069Z,100.00
2023-12-02T00:06:26.667Z,100.00
2023-12-02T00:09:50.570Z,100.00
2023-12-02T00:13:13.003Z,100.00
2023-12-02T00:16:35.413Z,100.00
2023-12-02T00:19:57.963Z,100.00
2023-12-02T00:23:20.681Z,100.00
2023-12-02T00:26:44.609Z,100.00
2023-12-02T00:30:08.548Z,100.00
2023-12-02T00:33:32.047Z,100.00
2023-12-02T00:36:54.822Z,100.00
2023-12-02T00:40:17.634Z,100.00
2023-12-02T00:43:41.281Z,100.00
2023-12-02T00:47:03.759Z,100.00
2023-12-02T00:50:26.444Z,100.00
2023-12-02T00:53:49.116Z,100.00
2023-12-02T00:57:11.714Z,100.00
2023-12-02T01:00:35.764Z,100.00
2023-12-02T01:03:58.592Z,100.00
2023-12-02T01:07:21.586Z,100.00
2023-12-02T01:10:44.256Z,100.00
2023-12-02T01:14:07.300Z,100.00
2023-12-02T01:17:33.373Z,100.00
2023-12-02T01:20:56.073Z,100.00
2023-12-02T01:24:18.747Z,100.00
2023-12-02T01:27:41.408Z,100.00
2023-12-02T01:31:03.978Z,100.00
2023-12-02T01:34:28.013Z,100.00
2023-12-02T01:37:50.739Z,100.00
2023-12-02T01:41:13.397Z,100.00
2023-12-02T01:44:36.101Z,100.00
2023-12-02T01:47:59.153Z,100.00
2023-12-02T01:51:22.986Z,100.00
2023-12-02T01:54:45.583Z,100.00
2023-12-02T01:58:08.199Z,100.00
2023-12-02T02:01:30.703Z,100.00
2023-12-02T02:04:53.655Z,100.00
2023-12-02T02:08:17.668Z,100.00
2023-12-02T02:11:40.361Z,100.00
2023-12-02T02:15:02.947Z,100.00
2023-12-02T02:18:25.466Z,100.00
2023-12-02T02:21:52.536Z,100.00
2023-12-02T02:25:15.276Z,100.00
2023-12-02T02:28:37.822Z,100.00
2023-12-02T02:32:00.396Z,100.00
2023-12-02T02:35:22.937Z,100.00
2023-12-02T02:38:46.883Z,100.00
2023-12-02T02:42:10.225Z,100.00
2023-12-02T02:45:33.293Z,100.00
2023-12-02T02:48:55.626Z,100.00
2023-12-02T02:52:18.938Z,100.00
2023-12-02T02:55:42.648Z,100.00
2023-12-02T02:59:05.583Z,100.00
2023-12-02T03:02:28.402Z,100.00
2023-12-02T03:05:51.445Z,100.00
2023-12-02T03:09:15.510Z,100.00
2023-12-02T03:12:39.544Z,100.00
2023-12-02T03:16:01.744Z,100.00
2023-12-02T03:19:25.081Z,100.00
2023-12-02T03:22:48.130Z,100.00
2023-12-02T03:26:12.242Z,100.00
2023-12-02T03:29:36.360Z,100.00
2023-12-02T03:32:58.889Z,100.00
2023-12-02T03:36:21.364Z,100.00
2023-12-02T03:39:43.719Z,100.00
2023-12-02T03:43:07.772Z,100.00
2023-12-02T03:46:32.191Z,100.00
2023-12-02T03:49:54.665Z,100.00
2023-12-02T03:53:19.035Z,100.00
2023-12-02T03:56:41.450Z,100.00
2023-12-02T04:00:12.650Z,100.00
2023-12-02T04:03:37.130Z,100.00
2023-12-02T04:06:59.911Z,100.00
2023-12-02T04:10:22.355Z,100.00
2023-12-02T04:13:44.965Z,100.00
2023-12-02T04:17:07.648Z,100.00
2023-12-02T04:20:31.673Z,100.00
2023-12-02T04:23:54.340Z,100.00
2023-12-02T04:27:19.391Z,100.00
2023-12-02T04:30:41.944Z,100.00
2023-12-02T04:34:05.621Z,100.00
2023-12-02T04:37:29.735Z,100.00
2023-12-02T04:40:52.400Z,100.00
2023-12-02T04:44:14.935Z,100.00
2023-12-02T04:47:38.141Z,100.00
2023-12-02T04:51:00.730Z,100.00
2023-12-02T04:54:27.947Z,100.00
2023-12-02T04:57:50.447Z,100.00
2023-12-02T05:01:13.070Z,100.00
2023-12-02T05:04:35.686Z,100.00
2023-12-02T05:07:58.169Z,100.00
2023-12-02T05:11:22.800Z,100.00
2023-12-02T05:14:45.268Z,100.00
2023-12-02T05:18:08.057Z,100.00
2023-12-02T05:21:30.711Z,100.00
2023-12-02T05:24:53.565Z,100.00
2023-12-02T05:28:20.024Z,100.00
2023-12-02T05:31:42.713Z,100.00
2023-12-02T05:35:06.966Z,100.00
2023-12-02T05:38:29.773Z,100.00
2023-12-02T05:41:52.358Z,100.00
2023-12-02T05:45:16.477Z,100.00
2023-12-02T05:48:38.912Z,100.00
2023-12-02T05:52:02.128Z,100.00
2023-12-02T05:55:24.474Z,100.00
2023-12-02T05:58:47.104Z,100.00
2023-12-02T06:02:12.256Z,100.00
2023-12-02T06:05:35.239Z,100.00
2023-12-02T06:08:57.891Z,100.00
2023-12-02T06:12:20.613Z,100.00
2023-12-02T06:15:43.468Z,100.00
2023-12-02T06:19:07.416Z,100.00
2023-12-02T06:22:29.928Z,100.00
2023-12-02T06:25:52.788Z,100.00
2023-12-02T06:29:16.285Z,100.00
2023-12-02T06:32:38.768Z,100.00
2023-12-02T06:36:02.679Z,100.00
2023-12-02T06:39:25.156Z,100.00
2023-12-02T06:42:47.789Z,100.00
2023-12-02T06:46:10.597Z,100.00
2023-12-02T06:49:33.180Z,100.00
2023-12-02T06:52:57.064Z,100.00
2023-12-02T06:56:19.774Z,100.00
2023-12-02T06:59:43.066Z,100.00
2023-12-02T07:03:05.829Z,100.00
2023-12-02T07:06:29.050Z,100.00
2023-12-02T07:09:53.011Z,100.00
2023-12-02T07:13:18.192Z,100.00
2023-12-02T07:16:40.409Z,100.00
2023-12-02T07:20:05.081Z,100.00
2023-12-02T07:23:27.362Z,100.00
2023-12-02T07:26:54.577Z,100.00
2023-12-02T07:33:43.282Z,100.00
2023-12-02T07:37:05.861Z,100.00
2023-12-02T07:40:31.536Z,100.00
2023-12-02T07:43:55.178Z,100.00
2023-12-02T07:47:17.840Z,100.00
2023-12-02T07:50:40.365Z,100.00
2023-12-02T07:54:03.086Z,100.00
2023-12-02T07:57:25.911Z,100.00
2023-12-02T08:00:50.360Z,100.00
2023-12-02T08:04:13.122Z,100.00
2023-12-02T08:07:35.700Z,100.00
2023-12-02T08:10:58.346Z,100.00
2023-12-02T08:14:21.096Z,100.00
2023-12-02T08:17:45.102Z,100.00
2023-12-02T08:21:08.372Z,100.00
2023-12-02T08:24:33.476Z,100.00
2023-12-02T08:27:55.961Z,100.00
2023-12-02T08:31:18.570Z,100.00
2023-12-02T08:34:43.288Z,100.00
2023-12-02T08:38:06.233Z,100.00
2023-12-02T08:41:28.756Z,100.00
2023-12-02T08:44:52.599Z,100.00
2023-12-02T08:48:17.280Z,100.00
2023-12-02T08:51:41.683Z,100.00
2023-12-02T08:55:05.378Z,100.00
2023-12-02T08:58:28.221Z,100.00
2023-12-02T09:01:50.923Z,100.00
2023-12-02T09:05:13.430Z,100.00
2023-12-02T09:08:37.442Z,100.00
2023-12-02T09:12:00.885Z,100.00
2023-12-02T09:15:39.619Z,100.00
2023-12-02T09:19:02.498Z,100.00
2023-12-02T09:22:50.715Z,100.00
2023-12-02T09:26:26.272Z,100.00
2023-12-02T09:29:48.507Z,100.00
2023-12-02T09:33:10.957Z,100.00
2023-12-02T09:36:34.717Z,100.00
2023-12-02T09:40:17.428Z,100.00
2023-12-02T09:43:45.636Z,100.00
2023-12-02T09:47:09.143Z,100.00
2023-12-02T09:50:34.842Z,100.00
2023-12-02T09:54:00.217Z,100.00
2023-12-02T09:57:28.275Z,100.00
2023-12-02T10:00:54.708Z,100.00
2023-12-02T10:04:25.053Z,100.00
2023-12-02T10:07:56.944Z,100.00
2023-12-02T10:11:23.300Z,100.00
2023-12-02T10:14:45.702Z,100.00
2023-12-02T10:18:13.233Z,100.00
2023-12-02T10:21:35.681Z,100.00
2023-12-02T10:25:01.841Z,100.00
2023-12-02T10:28:26.457Z,100.00
2023-12-02T10:32:06.439Z,100.00
2023-12-02T10:35:31.821Z,100.00
2023-12-02T10:39:08.256Z,100.00
2023-12-02T10:42:39.013Z,100.00
2023-12-02T10:46:02.086Z,100.00
2023-12-02T10:49:24.419Z,100.00
2023-12-02T10:52:55.179Z,100.00
2023-12-02T10:56:22.445Z,100.00
2023-12-02T10:59:51.036Z,100.00
2023-12-02T11:03:17.316Z,100.00
2023-12-02T11:06:41.275Z,100.00
2023-12-02T11:10:06.513Z,100.00
2023-12-02T11:13:29.376Z,100.00
2023-12-02T11:17:01.293Z,100.00
2023-12-02T11:20:24.483Z,100.00
2023-12-02T11:23:54.340Z,100.00
2023-12-02T11:27:26.027Z,100.00
2023-12-02T11:30:59.024Z,100.00
2023-12-02T11:34:29.985Z,100.00
2023-12-02T11:37:58.212Z,100.00
2023-12-02T11:41:26.740Z,100.00
2023-12-02T11:45:02.595Z,100.00
2023-12-02T11:48:30.409Z,100.00
2023-12-02T11:51:57.777Z,100.00
2023-12-02T11:55:30.951Z,100.00
2023-12-02T11:58:54.759Z,100.00
2023-12-02T12:02:24.484Z,100.00
2023-12-02T12:05:51.402Z,100.00
2023-12-02T12:09:18.801Z,100.00
2023-12-02T12:12:42.157Z,100.00
2023-12-02T12:16:04.930Z,100.00
2023-12-02T12:19:29.584Z,100.00
2023-12-02T12:22:52.097Z,100.00
2023-12-02T12:26:14.520Z,100.00
2023-12-02T12:29:37.091Z,100.00
2023-12-02T12:32:59.877Z,100.00
2023-12-02T12:36:28.805Z,100.00
2023-12-02T12:39:51.613Z,100.00
2023-12-02T12:43:14.286Z,100.00
2023-12-02T12:46:36.712Z,100.00
2023-12-02T12:49:59.114Z,100.00
2023-12-02T12:53:25.662Z,100.00
2023-12-02T12:56:48.613Z,100.00
2023-12-02T13:00:12.567Z,100.00
2023-12-02T13:03:52.771Z,100.00
2023-12-02T13:07:15.586Z,100.00
2023-12-02T13:10:39.546Z,100.00
2023-12-02T13:14:05.987Z,100.00
2023-12-02T13:17:28.159Z,100.00
2023-12-02T13:20:51.161Z,100.00
2023-12-02T13:24:14.264Z,100.00
2023-12-02T13:27:39.786Z,100.00
2023-12-02T13:31:02.802Z,100.00
2023-12-02T13:34:31.884Z,100.00
2023-12-02T13:38:01.848Z,100.00
2023-12-02T13:41:31.453Z,100.00
2023-12-02T13:44:55.488Z,100.00
2023-12-02T13:48:23.655Z,100.00
2023-12-02T13:51:48.349Z,100.00
2023-12-02T13:55:21.914Z,100.00
2023-12-02T13:58:45.762Z,100.00
2023-12-02T14:02:19.971Z,100.00
2023-12-02T14:05:45.590Z,100.00
2023-12-02T14:09:09.551Z,100.00
2023-12-02T14:12:46.472Z,100.00
2023-12-02T14:16:24.516Z,100.00
2023-12-02T14:20:03.619Z,100.00
2023-12-02T14:23:36.053Z,100.00
2023-12-02T14:27:25.240Z,100.00
2023-12-02T14:31:02.820Z,100.00
2023-12-02T14:34:41.616Z,100.00
2023-12-02T14:38:22.600Z,100.00
2023-12-02T14:41:49.095Z,100.00
2023-12-02T14:45:12.327Z,100.00
2023-12-02T14:48:35.509Z,100.00
2023-12-02T14:51:58.988Z,100.00
2023-12-02T14:55:25.555Z,100.00
2023-12-02T14:58:50.614Z,100.00
2023-12-02T15:02:37.441Z,100.00
2023-12-02T15:06:00.136Z,100.00
2023-12-02T15:09:25.132Z,100.00
2023-12-02T15:12:50.220Z,100.00
2023-12-02T15:16:13.409Z,100.00
2023-12-02T15:19:36.140Z,100.00
2023-12-02T15:23:34.909Z,100.00
2023-12-02T15:26:59.719Z,100.00
2023-12-02T15:30:23.855Z,100.00
2023-12-02T15:33:48.986Z,100.00
2023-12-02T15:37:11.697Z,100.00
2023-12-02T15:40:34.098Z,100.00
2023-12-02T15:43:56.971Z,100.00
2023-12-02T15:47:20.776Z,100.00
2023-12-02T15:50:43.217Z,100.00
2023-12-02T15:54:05.898Z,100.00
2023-12-02T15:57:28.924Z,100.00
2023-12-02T16:00:51.298Z,100.00
2023-12-02T16:04:17.292Z,100.00
2023-12-02T16:07:39.974Z,100.00
2023-12-02T16:11:02.499Z,100.00
2023-12-02T16:14:25.256Z,100.00
2023-12-02T16:17:47.620Z,100.00
2023-12-02T16:21:12.275Z,100.00
2023-12-02T16:24:35.215Z,100.00
2023-12-02T16:27:57.680Z,100.00
2023-12-02T16:31:26.327Z,100.00
2023-12-02T16:34:48.948Z,100.00
2023-12-02T16:38:12.945Z,100.00
2023-12-02T16:41:36.114Z,100.00
2023-12-02T16:44:59.735Z,100.00
2023-12-02T16:48:22.342Z,100.00
2023-12-02T16:51:46.017Z,100.00
2023-12-02T16:55:13.115Z,100.00
2023-12-02T16:58:36.705Z,100.00
2023-12-02T17:01:58.932Z,100.00
2023-12-02T17:05:54.746Z,100.00
2023-12-02T17:09:18.920Z,100.00
2023-12-02T17:12:43.004Z,100.00
2023-12-02T17:16:05.806Z,100.00
2023-12-02T17:19:31.683Z,100.00
2023-12-02T17:22:54.324Z,100.00
2023-12-02T17:26:16.877Z,100.00
2023-12-02T17:29:41.698Z,100.00
2023-12-02T17:33:04.756Z,100.00
2023-12-02T17:36:27.379Z,100.00
2023-12-02T17:39:49.893Z,100.00
2023-12-02T17:43:12.446Z,100.00
2023-12-02T17:46:36.374Z,100.00
2023-12-02T17:49:58.970Z,100.00
2023-12-02T17:53:23.657Z,100.00
2023-12-02T17:56:46.321Z,100.00
2023-12-02T18:00:10.951Z,100.00
2023-12-02T18:03:35.259Z,100.00
2023-12-02T18:06:58.431Z,100.00
2023-12-02T18:10:21.242Z,100.00
2023-12-02T18:13:43.772Z,100.00
2023-12-02T18:17:06.449Z,100.00
2023-12-02T18:20:30.207Z,100.00
2023-12-02T18:23:58.518Z,100.00
2023-12-02T18:27:23.021Z,100.00
2023-12-02T18:30:48.169Z,100.00
2023-12-02T18:34:11.224Z,100.00
2023-12-02T18:37:35.353Z,100.00
2023-12-02T18:40:57.870Z,100.00
2023-12-02T18:44:20.425Z,100.00
2023-12-02T18:47:43.295Z,100.00
2023-12-02T18:51:09.339Z,100.00
2023-12-02T18:54:33.282Z,100.00
2023-12-02T18:57:55.797Z,99.88
2023-12-02T19:01:18.512Z,99.60
2023-12-02T19:04:41.157Z,100.00
2023-12-02T19:08:04.074Z,100.00
2023-12-02T19:11:28.303Z,100.00
2023-12-02T19:14:51.127Z,100.00
2023-12-02T19:18:13.938Z,100.00
2023-12-02T19:21:36.473Z,100.00
2023-12-02T19:24:59.404Z,99.26
2023-12-02T19:28:25.516Z,98.58
2023-12-02T19:31:47.969Z,100.00
2023-12-02T19:35:10.695Z,97.33
2023-12-02T19:38:33.370Z,97.56
2023-12-02T19:41:55.782Z,98.06
2023-12-02T19:45:20.275Z,98.81
2023-12-02T19:48:42.727Z,98.46
2023-12-02T19:52:05.689Z,97.37
2023-12-02T19:55:28.170Z,97.77
2023-12-02T19:58:51.422Z,98.10
2023-12-02T20:02:15.548Z,98.11
2023-12-02T20:05:39.195Z,96.95
2023-12-02T20:09:02.015Z,96.66
2023-12-02T20:12:28.313Z,97.66
2023-12-02T20:15:50.891Z,97.76
2023-12-02T20:19:15.029Z,98.12
2023-12-02T20:22:37.812Z,99.45
2023-12-02T20:26:01.622Z,97.55
2023-12-02T20:29:25.377Z,97.20
2023-12-02T20:32:49.316Z,97.70
2023-12-02T20:36:14.927Z,96.38
2023-12-02T20:39:38.299Z,97.05
2023-12-02T20:43:01.591Z,95.99
2023-12-02T20:46:24.833Z,96.03
2023-12-02T20:49:47.838Z,96.27
2023-12-02T20:53:13.670Z,96.28
2023-12-02T20:56:36.365Z,94.83
2023-12-02T21:00:00.016Z,95.68
2023-12-02T21:03:23.023Z,94.97
2023-12-02T21:06:46.087Z,96.29
2023-12-02T21:10:10.688Z,95.49
2023-12-02T21:13:33.397Z,96.25
2023-12-02T21:16:55.961Z,96.69
2023-12-02T21:20:18.812Z,96.91
2023-12-02T21:23:41.112Z,95.62
2023-12-02T21:27:05.684Z,95.92
2023-12-02T21:30:47.046Z,95.71
2023-12-02T21:34:10.233Z,96.79
2023-12-02T21:37:34.145Z,97.00
2023-12-02T21:40:56.996Z,96.73
2023-12-02T21:44:20.883Z,97.20
2023-12-02T21:47:43.795Z,96.52
2023-12-02T21:51:08.952Z,96.55
2023-12-02T21:54:31.556Z,95.72
2023-12-02T21:57:53.925Z,95.27
2023-12-02T22:01:17.782Z,95.70
2023-12-02T22:04:41.797Z,96.32
2023-12-02T22:08:06.616Z,95.98
2023-12-02T22:11:29.257Z,95.59
2023-12-02T22:14:51.548Z,95.36
2023-12-02T22:18:16.635Z,94.89
2023-12-02T22:21:39.427Z,94.61
2023-12-02T22:25:02.318Z,95.23
2023-12-02T22:28:31.390Z,94.17
2023-12-02T22:31:54.229Z,95.01
2023-12-02T22:35:18.213Z,95.46
2023-12-02T22:38:43.096Z,95.13
2023-12-02T22:42:06.894Z,94.77
2023-12-02T22:45:29.604Z,95.26
2023-12-02T22:48:52.500Z,95.34
2023-12-02T22:52:16.830Z,95.86
2023-12-02T22:55:54.915Z,95.86
2023-12-02T22:59:17.680Z,96.39
2023-12-02T23:02:40.400Z,96.03
2023-12-02T23:06:05.295Z,96.05
2023-12-02T23:09:38.620Z,94.48
2023-12-02T23:13:01.579Z,94.14
2023-12-02T23:16:40.795Z,94.72
2023-12-02T23:20:10.515Z,95.20
2023-12-02T23:23:33.130Z,94.20
2023-12-02T23:26:56.990Z,95.14
2023-12-02T23:30:19.465Z,94.85
2023-12-02T23:33:42.032Z,93.29
2023-12-02T23:37:04.721Z,93.66
2023-12-02T23:40:29.087Z,93.29
2023-12-02T23:43:55.438Z,93.34
2023-12-02T23:47:20.306Z,92.80
2023-12-02T23:50:42.665Z,93.01
2023-12-02T23:54:07.027Z,93.66
2023-12-02T23:57:29.696Z,94.59
